Allensworth, CA

3:45 PM PDT on March 30, 2017 (GMT -0700)
MAU642 | | Change Station

Elev 213 ft 35.86 °N, 119.39 °W | Updated 7 hours ago

Clear
Clear
52.0 °F
Feels Like 52.0 °F
N
4.0
Wind Variable Wind from West
Gusts 7.0 mph

Today
High -- | Low -- °F
--% Chance of Precip.
Yesterday
High -- | Low -- °F
Precip. -- in
Pressure 29.97 in
Visibility 10.0 miles
Clouds Clear
Dew Point 50.0 °F
Humidity 93%
Rainfall in
Snow Depth Not available.
6:46 AM 7:17 PM
Waxing Crescent, 11% visible
METAR KPTV 302156Z AUTO 32018G26KT 10SM CLR 20/04 A2993 RMK AO2 PK WND 31026/2153 SLP148 T02000044
Pressure 29.97 in
Visibility 10.0 miles
Clouds Clear
Dew Point 50.0 °F
Humidity 93%
Rainfall in
Snow Depth Not available.
6:46 AM 7:17 PM
Waxing Crescent, 11% visible
METAR KPTV 302156Z AUTO 32018G26KT 10SM CLR 20/04 A2993 RMK AO2 PK WND 31026/2153 SLP148 T02000044

Get Severe Weather Alerts

Thanks for signing up!

Be on the lookout for a verification email in your inbox.

You'll start receiving the daily forecast at 8 AM.

×

10-Day Weather Forecast

Almanac

Astronomy

Mar. 30, 2017 Rise Set
Actual Time
Civil Twilight
Nautical Twilight
Astronomical Twilight
Moon
Length of Visible Light
Length of Day
Tomorrow will be .
, % of the Moon is Illuminated

Today's Extremes

State Highs State Lows

Community

WunderPhotos

Upload Photos

1,962,540 photos uploaded!

WunderBlog® & News

Nearby

Air Quality

  Air Quality AQ Index Pollutant
Not available.

Snow Depth

Station Depth Elevation

Earthquake Activity

City Distance Mag. Time & Date
Minimum magnitude displayed is 2.5.

Earthquake Activity

City Distance Mag. Time & Date
Minimum magnitude displayed is 2.5.

Coastal Water Temperatures

Place Temperature

Stations

Nearby Weather Stations

Station Location Temp. Windchill Dew Point Humidity Wind Precip. Elev Updated Type
                   

Watches & Warnings

There are currently no watches in effect.